Positano — IJZJ — position and weather

sailwx.info

Track history (hours):
 
Tides and Currents Weather Stations Pressure Air Temp Water Temp Dewpoint Dewpoint Depression Visibility Wind Speed Wind Dir Waves Ship Positions

Positano

Last reported at 2015-Oct-31 14:31 UTC. Time now 2016-Feb-08 14:35 UTC.
Position N 40°37' E 014°20'.
Warning: this ship's position is months out of date.

Length 12 m.

Type: Ship. MMSI: 247208300.

Date/timePositionNaut miles runAvg speedWind from/ knotsBaromVisibWave heightAir tempDewpointWater temp
2015-Oct-31 14:31N 40°37' E 014°20'5 5.5
2015-Oct-31 13:32N 40°33' E 014°14'0 0.2
2015-Oct-31 12:33N 40°33' E 014°15'0 0.0
2015-Oct-31 11:33N 40°33' E 014°15'0 0.0
2015-Oct-31 10:32N 40°33' E 014°15'0 0.0
2015-Oct-31 09:32N 40°33' E 014°15'1 0.7
2015-Oct-31 08:33N 40°34' E 014°16'3 0.2
2015-Oct-30 15:14N 40°34' E 014°19'4 5.5
2015-Oct-30 14:33N 40°32' E 014°15'1 1.0
2015-Oct-30 13:32N 40°33' E 014°14'1 0.3
2015-Oct-30 09:14N 40°32' E 014°15'2 2.2
2015-Oct-30 08:33N 40°34' E 014°16'4 4.2
2015-Oct-30 07:33N 40°37' E 014°20'  
2015-Oct-26 16:33N 40°37' E 014°20'6 2.8
2015-Oct-26 14:33N 40°34' E 014°14'0 0.0
2015-Oct-26 13:33N 40°34' E 014°14'0 0.4
2015-Oct-26 12:33N 40°34' E 014°14'0 0.0
2015-Oct-26 11:33N 40°34' E 014°14'0 0.0
2015-Oct-26 10:33N 40°34' E 014°14'0 0.0
2015-Oct-26 09:33N 40°34' E 014°14'1 1.5
2015-Oct-26 08:32N 40°34' E 014°16'1 0.1
2015-Oct-25 14:33N 40°33' E 014°14'0 0.2
2015-Oct-25 13:34N 40°34' E 014°14'0 0.0
2015-Oct-25 12:34N 40°34' E 014°14'1 0.6
2015-Oct-25 10:29N 40°32' E 014°15'2 2.5
2015-Oct-25 09:33N 40°34' E 014°12'6 0.3
2015-Oct-24 15:33N 40°36' E 014°20'7 5.2
2015-Oct-24 14:07N 40°37' E 014°29'0 0.1
2015-Oct-24 13:33N 40°37' E 014°29'0 0.0
2015-Oct-24 12:33N 40°37' E 014°29'2 0.4
2015-Oct-24 08:13N 40°36' E 014°31'9 8.7
2015-Oct-24 07:12N 40°35' E 014°19'  
Track history (hours):
 
Tides and Currents Weather Stations Pressure Air Temp Water Temp Dewpoint Dewpoint Depression Visibility Wind Speed Wind Dir Waves Ship Positions

Positano

Last reported at 2015-Oct-31 14:31 UTC. Time now 2016-Feb-08 14:35 UTC.
Position N 40°37' E 014°20'.
Warning: this ship's position is months out of date.

Length 12 m.

Type: Ship. MMSI: 247208300.

Date/timePositionNaut miles runAvg speedWind from/ knotsBaromVisibWave heightAir tempDewpointWater temp
2015-Oct-31 14:31N 40°37' E 014°20'5 5.5
2015-Oct-31 13:32N 40°33' E 014°14'0 0.2
2015-Oct-31 12:33N 40°33' E 014°15'0 0.0
2015-Oct-31 11:33N 40°33' E 014°15'0 0.0
2015-Oct-31 10:32N 40°33' E 014°15'0 0.0
2015-Oct-31 09:32N 40°33' E 014°15'1 0.7
2015-Oct-31 08:33N 40°34' E 014°16'3 0.2
2015-Oct-30 15:14N 40°34' E 014°19'4 5.5
2015-Oct-30 14:33N 40°32' E 014°15'1 1.0
2015-Oct-30 13:32N 40°33' E 014°14'1 0.3
2015-Oct-30 09:14N 40°32' E 014°15'2 2.2
2015-Oct-30 08:33N 40°34' E 014°16'4 4.2
2015-Oct-30 07:33N 40°37' E 014°20'  
2015-Oct-26 16:33N 40°37' E 014°20'6 2.8
2015-Oct-26 14:33N 40°34' E 014°14'0 0.0
2015-Oct-26 13:33N 40°34' E 014°14'0 0.4
2015-Oct-26 12:33N 40°34' E 014°14'0 0.0
2015-Oct-26 11:33N 40°34' E 014°14'0 0.0
2015-Oct-26 10:33N 40°34' E 014°14'0 0.0
2015-Oct-26 09:33N 40°34' E 014°14'1 1.5
2015-Oct-26 08:32N 40°34' E 014°16'1 0.1
2015-Oct-25 14:33N 40°33' E 014°14'0 0.2
2015-Oct-25 13:34N 40°34' E 014°14'0 0.0
2015-Oct-25 12:34N 40°34' E 014°14'1 0.6
2015-Oct-25 10:29N 40°32' E 014°15'2 2.5
2015-Oct-25 09:33N 40°34' E 014°12'6 0.3
2015-Oct-24 15:33N 40°36' E 014°20'7 5.2
2015-Oct-24 14:07N 40°37' E 014°29'0 0.1
2015-Oct-24 13:33N 40°37' E 014°29'0 0.0
2015-Oct-24 12:33N 40°37' E 014°29'2 0.4
2015-Oct-24 08:13N 40°36' E 014°31'9 8.7
2015-Oct-24 07:12N 40°35' E 014°19'  

Dump ship's entire track history